createdAt,value
2022-10-14T00:00:37.653Z,3.20
2022-10-14T00:03:06.501Z,2.92
2022-10-14T00:05:34.366Z,3.22
2022-10-14T00:08:02.167Z,3.78
2022-10-14T00:10:31.343Z,3.20
2022-10-14T00:12:59.154Z,3.30
2022-10-14T00:15:26.999Z,3.42
2022-10-14T00:17:54.826Z,3.47
2022-10-14T00:20:22.654Z,3.45
2022-10-14T00:22:50.478Z,3.30
2022-10-14T00:25:18.915Z,3.92
2022-10-14T00:27:48.057Z,3.67
2022-10-14T00:30:16.012Z,3.20
2022-10-14T00:32:43.926Z,3.13
2022-10-14T00:35:11.911Z,3.42
2022-10-14T00:37:40.635Z,4.00
2022-10-14T00:40:09.461Z,3.70
2022-10-14T00:42:37.294Z,3.65
2022-10-14T00:45:12.997Z,3.60
2022-10-14T00:47:41.833Z,3.65
2022-10-14T00:50:10.859Z,3.35
2022-10-14T00:52:39.042Z,3.38
2022-10-14T00:55:12.786Z,3.58
2022-10-14T00:57:40.628Z,3.72
2022-10-14T01:00:13.267Z,3.28
2022-10-14T01:02:42.489Z,3.90
2022-10-14T01:05:12.597Z,3.67
2022-10-14T01:07:47.896Z,3.78
2022-10-14T01:10:24.421Z,3.83
2022-10-14T01:13:05.539Z,3.10
2022-10-14T01:15:39.829Z,4.85
2022-10-14T01:18:28.306Z,4.47
2022-10-14T01:21:09.654Z,3.88
2022-10-14T01:24:20.178Z,3.63
2022-10-14T01:27:35.556Z,3.67
2022-10-14T01:30:11.969Z,3.28
2022-10-14T01:32:51.427Z,3.92
2022-10-14T01:35:25.806Z,4.50
2022-10-14T01:37:57.878Z,3.65
2022-10-14T01:40:30.248Z,4.00
2022-10-14T01:43:01.797Z,3.40
2022-10-14T01:45:34.353Z,3.80
2022-10-14T01:48:04.844Z,4.45
2022-10-14T01:50:35.321Z,4.32
2022-10-14T01:53:06.137Z,3.95
2022-10-14T01:55:38.309Z,3.35
2022-10-14T01:58:07.573Z,3.28
2022-10-14T02:00:38.144Z,3.15
2022-10-14T02:03:06.025Z,3.28
2022-10-14T02:05:38.110Z,2.95
2022-10-14T02:08:12.467Z,2.88
2022-10-14T02:11:01.891Z,3.65
2022-10-14T02:13:49.465Z,2.97
2022-10-14T02:16:27.014Z,2.60
2022-10-14T02:19:02.716Z,3.15
2022-10-14T02:21:37.197Z,2.47
2022-10-14T02:24:08.464Z,2.80
2022-10-14T02:26:38.002Z,2.50
2022-10-14T02:29:06.832Z,2.20
2022-10-14T02:31:39.028Z,2.17
2022-10-14T02:34:12.439Z,2.53
2022-10-14T02:36:42.751Z,2.42
2022-10-14T02:39:13.893Z,2.40
2022-10-14T02:41:41.875Z,2.40
2022-10-14T02:44:10.077Z,2.50
2022-10-14T02:46:41.423Z,2.38
2022-10-14T02:49:09.326Z,3.00
2022-10-14T02:51:37.241Z,2.45
2022-10-14T02:54:05.161Z,3.00
2022-10-14T02:56:33.030Z,2.45
2022-10-14T02:59:00.846Z,2.55
2022-10-14T03:01:29.982Z,2.70
2022-10-14T03:04:00.814Z,2.38
2022-10-14T03:06:28.680Z,2.58
2022-10-14T03:08:56.472Z,2.42
2022-10-14T03:11:24.283Z,2.63
2022-10-14T03:13:52.117Z,2.60
2022-10-14T03:16:19.967Z,2.65
2022-10-14T03:18:47.973Z,2.33
2022-10-14T03:21:17.189Z,2.50
2022-10-14T03:23:45.000Z,2.50
2022-10-14T03:26:14.162Z,2.53
2022-10-14T03:28:42.251Z,2.80
2022-10-14T03:31:10.138Z,2.50
2022-10-14T03:33:38.669Z,2.60
2022-10-14T03:36:06.953Z,2.50
2022-10-14T03:38:36.122Z,2.35
2022-10-14T03:41:03.918Z,2.40
2022-10-14T03:43:32.009Z,2.40
2022-10-14T03:45:59.838Z,2.30
2022-10-14T03:48:27.675Z,3.15
2022-10-14T03:50:55.503Z,2.50
2022-10-14T03:53:23.327Z,2.35
2022-10-14T03:55:52.544Z,3.10
2022-10-14T03:58:20.370Z,2.80
2022-10-14T04:00:48.182Z,2.75
2022-10-14T04:03:16.133Z,2.53
2022-10-14T04:05:44.088Z,2.97
2022-10-14T04:08:11.964Z,3.20
2022-10-14T04:10:39.779Z,2.50
2022-10-14T04:13:08.945Z,3.65
2022-10-14T04:15:37.380Z,2.70
2022-10-14T04:18:05.254Z,3.20
2022-10-14T04:20:33.308Z,3.00
2022-10-14T04:23:01.568Z,3.30
2022-10-14T04:25:29.379Z,3.42
2022-10-14T04:27:57.249Z,3.50
2022-10-14T04:30:26.504Z,3.47
2022-10-14T04:32:54.533Z,3.45
2022-10-14T04:35:22.415Z,3.58
2022-10-14T04:37:50.270Z,3.72
2022-10-14T04:40:20.401Z,3.97
2022-10-14T04:42:48.197Z,3.40
2022-10-14T04:45:16.172Z,3.33
2022-10-14T04:47:48.608Z,3.58
2022-10-14T04:50:16.905Z,3.40
2022-10-14T04:52:44.740Z,3.33
2022-10-14T04:55:12.844Z,3.40
2022-10-14T04:57:43.151Z,3.15
2022-10-14T05:00:13.044Z,3.80
2022-10-14T05:02:40.980Z,3.58
2022-10-14T05:05:10.878Z,3.20
2022-10-14T05:07:38.793Z,3.65
2022-10-14T05:10:07.451Z,3.58
2022-10-14T05:12:35.376Z,3.35
2022-10-14T05:15:05.246Z,3.65
2022-10-14T05:17:33.275Z,2.80
2022-10-14T05:20:01.109Z,3.40
2022-10-14T05:22:30.422Z,3.40
2022-10-14T05:24:58.335Z,3.30
2022-10-14T05:27:26.190Z,3.10
2022-10-14T05:29:54.247Z,2.90
2022-10-14T05:32:22.350Z,3.20
2022-10-14T05:34:50.434Z,3.08
2022-10-14T05:37:18.310Z,3.65
2022-10-14T05:39:47.491Z,3.25
2022-10-14T05:42:15.394Z,3.53
2022-10-14T05:44:43.259Z,3.22
2022-10-14T05:47:11.267Z,2.97
2022-10-14T05:49:39.142Z,3.28
2022-10-14T05:52:07.048Z,3.20
2022-10-14T05:54:34.972Z,3.05
2022-10-14T05:57:04.220Z,3.00
2022-10-14T05:59:34.577Z,3.33
2022-10-14T06:02:02.558Z,3.40
2022-10-14T06:04:30.592Z,3.58
2022-10-14T06:07:00.211Z,2.83
2022-10-14T06:09:28.193Z,3.33
2022-10-14T06:11:56.017Z,3.50
2022-10-14T06:14:25.300Z,3.83
2022-10-14T06:16:53.235Z,4.10
2022-10-14T06:19:21.167Z,3.47
2022-10-14T06:21:49.311Z,3.47
2022-10-14T06:24:17.304Z,3.08
2022-10-14T06:26:45.134Z,3.20
2022-10-14T06:29:13.004Z,3.42
2022-10-14T06:31:42.327Z,2.60
2022-10-14T06:34:10.214Z,3.08
2022-10-14T06:36:38.152Z,3.00
2022-10-14T06:39:06.266Z,2.60
2022-10-14T06:41:34.100Z,3.00
2022-10-14T06:44:02.119Z,2.47
2022-10-14T06:46:31.342Z,2.60
2022-10-14T06:49:00.532Z,2.50
2022-10-14T06:51:28.387Z,2.50
2022-10-14T06:53:56.219Z,2.55
2022-10-14T06:56:24.048Z,2.70
2022-10-14T06:58:54.680Z,2.72
2022-10-14T07:01:22.955Z,2.70
2022-10-14T07:03:54.196Z,2.47
2022-10-14T07:06:25.842Z,3.05
2022-10-14T07:08:53.931Z,3.25
2022-10-14T07:11:21.799Z,2.33
2022-10-14T07:13:49.639Z,2.58
2022-10-14T07:16:17.483Z,2.55
2022-10-14T07:18:45.340Z,2.78
2022-10-14T07:21:13.222Z,2.33
2022-10-14T07:23:42.436Z,2.45
2022-10-14T07:26:10.319Z,2.45
2022-10-14T07:28:38.235Z,2.72
2022-10-14T07:31:08.637Z,3.83
2022-10-14T07:36:14.276Z,2.40
2022-10-14T07:38:45.907Z,2.30
2022-10-14T07:41:18.173Z,2.58
2022-10-14T07:46:15.614Z,2.78
2022-10-14T07:48:56.623Z,2.38
2022-10-14T07:51:25.719Z,2.40
2022-10-14T07:53:55.706Z,2.47
2022-10-14T07:56:24.077Z,2.20
2022-10-14T07:58:52.494Z,2.70
2022-10-14T08:01:20.617Z,2.55
2022-10-14T08:03:49.549Z,2.47
2022-10-14T08:06:17.815Z,2.55
2022-10-14T08:08:46.010Z,2.58
2022-10-14T08:11:18.253Z,2.25
2022-10-14T08:16:16.633Z,2.10
2022-10-14T08:18:44.845Z,2.55
2022-10-14T08:21:13.051Z,2.10
2022-10-14T08:23:40.908Z,2.35
2022-10-14T08:26:20.822Z,2.03
2022-10-14T08:28:48.870Z,1.83
2022-10-14T08:31:16.876Z,1.80
2022-10-14T08:33:44.794Z,1.65
2022-10-14T08:36:13.014Z,1.90
2022-10-14T08:38:41.771Z,2.03
2022-10-14T08:41:27.370Z,2.13
2022-10-14T08:44:06.647Z,1.70
2022-10-14T08:46:39.843Z,1.90
2022-10-14T08:49:14.680Z,1.67
2022-10-14T08:51:46.194Z,1.60
2022-10-14T08:54:19.360Z,1.95
2022-10-14T08:56:48.527Z,1.50
2022-10-14T08:59:19.476Z,2.30
2022-10-14T09:01:52.597Z,2.22
2022-10-14T09:04:21.396Z,1.75
2022-10-14T09:06:51.533Z,1.40
2022-10-14T09:09:24.631Z,1.42
2022-10-14T09:11:57.130Z,1.27
2022-10-14T09:14:28.538Z,1.38
2022-10-14T09:17:00.986Z,1.37
2022-10-14T09:19:32.512Z,1.30
2022-10-14T09:22:02.086Z,1.20
2022-10-14T09:24:35.370Z,1.38
2022-10-14T09:27:07.468Z,1.50
2022-10-14T09:29:43.797Z,1.50
2022-10-14T09:32:16.272Z,1.40
2022-10-14T09:34:49.238Z,1.27
2022-10-14T09:37:25.070Z,1.40
2022-10-14T09:39:55.767Z,1.30
2022-10-14T09:42:31.639Z,1.58
2022-10-14T09:45:10.147Z,1.38
2022-10-14T09:47:47.689Z,1.27
2022-10-14T09:50:26.905Z,1.50
2022-10-14T09:52:58.503Z,1.30
2022-10-14T09:55:26.622Z,1.45
2022-10-14T09:58:09.730Z,1.08
2022-10-14T10:00:38.736Z,1.52
2022-10-14T10:03:07.917Z,1.20
2022-10-14T10:05:37.194Z,1.15
2022-10-14T10:08:16.620Z,1.17
2022-10-14T10:11:02.119Z,1.02
2022-10-14T10:13:39.352Z,1.20
2022-10-14T10:16:09.558Z,1.10
2022-10-14T10:18:37.452Z,1.13
2022-10-14T10:21:08.017Z,1.30
2022-10-14T10:23:37.420Z,1.17
2022-10-14T10:26:21.417Z,1.20
2022-10-14T10:28:50.970Z,1.15
2022-10-14T10:31:42.388Z,1.05
2022-10-14T10:34:31.994Z,1.30
2022-10-14T10:37:05.376Z,1.48
2022-10-14T10:39:42.417Z,1.27
2022-10-14T10:42:19.293Z,1.50
2022-10-14T10:45:02.918Z,1.02
2022-10-14T10:47:35.977Z,1.00
2022-10-14T10:50:22.697Z,1.08
2022-10-14T10:53:07.010Z,1.30
2022-10-14T11:01:57.422Z,0.90
2022-10-14T11:04:32.066Z,1.20
2022-10-14T11:07:28.178Z,0.98
2022-10-14T11:10:25.597Z,0.90
2022-10-14T11:12:59.943Z,1.50
2022-10-14T11:15:39.250Z,1.30
2022-10-14T11:18:12.812Z,2.10
2022-10-14T11:20:53.263Z,1.33
2022-10-14T11:23:49.875Z,1.10
2022-10-14T11:29:19.270Z,1.40
2022-10-14T11:31:55.010Z,1.20
2022-10-14T11:34:43.341Z,1.13
2022-10-14T11:37:24.166Z,1.13
2022-10-14T11:39:58.251Z,1.00
2022-10-14T11:42:44.313Z,1.50
2022-10-14T11:45:28.902Z,1.10
2022-10-14T11:48:23.107Z,1.30
2022-10-14T11:50:58.138Z,1.20
2022-10-14T11:56:20.880Z,1.08
2022-10-14T11:58:51.934Z,1.05
2022-10-14T12:01:26.357Z,1.33
2022-10-14T12:04:03.642Z,1.17
2022-10-14T12:06:38.300Z,1.30
2022-10-14T12:09:15.717Z,1.40
2022-10-14T12:11:47.211Z,1.85
2022-10-14T12:14:20.088Z,1.50
2022-10-14T12:16:49.680Z,1.00
2022-10-14T12:19:23.458Z,1.10
2022-10-14T12:21:58.446Z,2.00
2022-10-14T12:24:31.176Z,1.10
2022-10-14T12:27:02.286Z,1.60
2022-10-14T12:29:33.773Z,1.27
2022-10-14T12:32:20.882Z,1.30
2022-10-14T12:34:50.368Z,1.05
2022-10-14T12:37:54.311Z,0.90
2022-10-14T12:40:32.077Z,0.90
2022-10-14T12:43:03.497Z,1.35
2022-10-14T12:45:33.735Z,1.00
2022-10-14T12:48:15.015Z,1.10
2022-10-14T12:50:46.226Z,1.00
2022-10-14T12:53:23.257Z,0.80
2022-10-14T12:55:54.213Z,0.68
2022-10-14T12:58:29.600Z,0.90
2022-10-14T13:01:02.713Z,1.10
2022-10-14T13:03:34.354Z,0.95
2022-10-14T13:06:28.627Z,1.10
2022-10-14T13:09:39.304Z,0.85
2022-10-14T13:12:45.399Z,1.05
2022-10-14T13:15:53.455Z,0.80
2022-10-14T13:18:51.735Z,1.00
2022-10-14T13:21:53.209Z,1.15
2022-10-14T13:24:28.885Z,0.95
2022-10-14T13:27:06.516Z,1.00
2022-10-14T13:29:56.023Z,1.90
2022-10-14T13:32:32.365Z,1.02
2022-10-14T13:35:12.868Z,1.10
2022-10-14T13:37:45.957Z,1.50
2022-10-14T13:40:30.068Z,1.40
2022-10-14T13:43:00.320Z,1.08
2022-10-14T13:45:35.986Z,0.68
2022-10-14T13:48:14.864Z,0.80
2022-10-14T13:50:43.877Z,0.90
2022-10-14T13:53:17.416Z,0.90
2022-10-14T13:55:50.352Z,1.10
2022-10-14T13:58:20.962Z,1.10
2022-10-14T14:00:59.324Z,2.28
2022-10-14T14:03:33.720Z,1.00
2022-10-14T14:06:04.046Z,1.20
2022-10-14T14:08:40.527Z,1.00
2022-10-14T14:11:18.398Z,1.10
2022-10-14T14:13:55.906Z,1.20
2022-10-14T14:16:33.480Z,1.08
2022-10-14T14:19:08.951Z,0.95
2022-10-14T14:21:38.296Z,1.10
2022-10-14T14:24:17.189Z,1.05
2022-10-14T14:26:45.465Z,1.00
2022-10-14T14:29:18.218Z,1.20
2022-10-14T14:34:38.166Z,1.15
2022-10-14T14:39:59.327Z,1.50
2022-10-14T14:42:28.926Z,1.20
2022-10-14T14:45:02.046Z,1.50
2022-10-14T14:47:31.253Z,1.30
2022-10-14T14:50:25.537Z,1.27
2022-10-14T14:52:51.574Z,1.50
2022-10-14T14:55:41.147Z,1.40
2022-10-14T14:58:25.539Z,1.45
2022-10-14T15:00:54.886Z,1.52
2022-10-14T15:03:24.666Z,1.50
2022-10-14T15:05:58.029Z,1.83
2022-10-14T15:08:28.969Z,1.35
2022-10-14T15:10:58.714Z,1.55
2022-10-14T15:13:30.317Z,1.42
2022-10-14T15:15:58.512Z,1.42
2022-10-14T15:18:28.549Z,1.60
2022-10-14T15:21:18.888Z,1.58
2022-10-14T15:24:03.043Z,1.98
2022-10-14T15:26:33.455Z,1.50
2022-10-14T15:32:07.429Z,1.60
2022-10-14T15:34:35.763Z,1.65
2022-10-14T15:37:06.116Z,1.50
2022-10-14T15:39:33.974Z,1.88
2022-10-14T15:42:02.244Z,1.80
2022-10-14T15:44:30.064Z,1.90
2022-10-14T15:47:15.297Z,1.55
2022-10-14T15:49:43.591Z,2.00
2022-10-14T15:52:16.399Z,1.88
2022-10-14T15:54:45.793Z,1.55
2022-10-14T15:57:16.443Z,2.10
2022-10-14T15:59:44.812Z,1.90
2022-10-14T16:02:17.969Z,1.70
2022-10-14T16:05:07.265Z,1.75
2022-10-14T16:07:34.945Z,2.20
2022-10-14T16:10:03.044Z,1.80
2022-10-14T16:12:30.884Z,2.30
2022-10-14T16:14:59.012Z,2.25
2022-10-14T16:17:26.866Z,2.53
2022-10-14T16:19:54.734Z,2.30
2022-10-14T16:22:22.544Z,2.10
2022-10-14T16:24:51.797Z,2.10
2022-10-14T16:27:19.660Z,1.98
2022-10-14T16:29:47.621Z,1.83
2022-10-14T16:32:15.416Z,2.05
2022-10-14T16:34:43.241Z,3.03
2022-10-14T16:37:11.071Z,1.92
2022-10-14T16:39:39.276Z,2.53
2022-10-14T16:42:09.166Z,2.55
2022-10-14T16:44:37.044Z,2.40
2022-10-14T16:47:17.069Z,2.00
2022-10-14T16:49:45.893Z,2.42
2022-10-14T16:52:14.224Z,2.50
2022-10-14T16:54:42.313Z,3.15
2022-10-14T16:57:12.052Z,2.80
2022-10-14T16:59:40.017Z,2.55
2022-10-14T17:02:10.510Z,2.60
2022-10-14T17:04:39.240Z,2.50
2022-10-14T17:07:08.745Z,2.50
2022-10-14T17:09:36.911Z,2.53
2022-10-14T17:12:09.374Z,3.35
2022-10-14T17:14:42.395Z,2.65
2022-10-14T17:17:10.516Z,2.80
2022-10-14T17:19:38.359Z,2.50
2022-10-14T17:22:06.206Z,3.00
2022-10-14T17:24:34.032Z,2.55
2022-10-14T17:27:04.507Z,2.90
2022-10-14T17:29:32.937Z,2.60
2022-10-14T17:32:02.098Z,2.70
2022-10-14T17:34:30.046Z,2.42
2022-10-14T17:36:59.548Z,2.50
2022-10-14T17:39:29.279Z,2.90
2022-10-14T17:41:57.584Z,2.90
2022-10-14T17:44:25.703Z,2.50
2022-10-14T17:46:54.042Z,3.30
2022-10-14T17:49:23.456Z,3.08
2022-10-14T17:51:51.263Z,3.35
2022-10-14T17:54:19.174Z,3.38
2022-10-14T17:56:47.147Z,2.95
2022-10-14T17:59:14.963Z,2.88
2022-10-14T18:02:01.451Z,2.60
2022-10-14T18:04:33.266Z,2.97
2022-10-14T18:07:01.098Z,2.55
2022-10-14T18:09:29.217Z,2.88
2022-10-14T18:12:12.983Z,2.67
2022-10-14T18:14:41.314Z,2.60
2022-10-14T18:17:11.019Z,2.45
2022-10-14T18:19:41.037Z,2.92
2022-10-14T18:22:10.920Z,4.47
2022-10-14T18:24:39.273Z,2.80
2022-10-14T18:27:07.284Z,2.60
2022-10-14T18:29:35.158Z,2.58
2022-10-14T18:32:02.983Z,2.42
2022-10-14T18:34:30.992Z,3.15
2022-10-14T18:37:00.216Z,3.03
2022-10-14T18:39:28.132Z,2.80
2022-10-14T18:41:55.918Z,2.60
2022-10-14T18:44:23.765Z,2.70
2022-10-14T18:46:51.579Z,2.70
2022-10-14T18:49:19.459Z,2.65
2022-10-14T18:51:47.274Z,2.10
2022-10-14T18:54:19.142Z,2.72
2022-10-14T18:56:47.658Z,2.70
2022-10-14T18:59:17.796Z,2.88
2022-10-14T19:01:46.764Z,2.70
2022-10-14T19:04:16.606Z,2.60
2022-10-14T19:06:48.730Z,2.78
2022-10-14T19:09:21.325Z,2.33
2022-10-14T19:11:51.104Z,2.10
2022-10-14T19:14:19.005Z,2.50
2022-10-14T19:16:47.561Z,2.47
2022-10-14T19:19:18.482Z,2.50
2022-10-14T19:21:48.735Z,2.50
2022-10-14T19:24:19.134Z,2.15
2022-10-14T19:26:48.766Z,2.10
2022-10-14T19:29:17.136Z,2.30
2022-10-14T19:31:45.336Z,2.42
2022-10-14T19:34:15.640Z,2.50
2022-10-14T19:36:44.438Z,2.10
2022-10-14T19:39:14.603Z,2.47
2022-10-14T19:41:45.013Z,2.60
2022-10-14T19:44:14.911Z,2.17
2022-10-14T19:46:43.473Z,2.47
2022-10-14T19:49:13.477Z,2.50
2022-10-14T19:51:41.622Z,2.38
2022-10-14T19:54:11.700Z,3.22
2022-10-14T19:56:39.571Z,2.78
2022-10-14T19:59:09.090Z,2.50
2022-10-14T20:01:37.000Z,2.42
2022-10-14T20:04:04.876Z,2.30
2022-10-14T20:06:35.522Z,2.42
2022-10-14T20:09:03.791Z,2.20
2022-10-14T20:11:31.866Z,2.22
2022-10-14T20:13:59.794Z,2.50
2022-10-14T20:16:29.120Z,2.40
2022-10-14T20:18:57.133Z,2.20
2022-10-14T20:21:26.271Z,1.80
2022-10-14T20:23:54.056Z,2.30
2022-10-14T20:26:23.103Z,2.30
2022-10-14T20:28:51.618Z,2.00
2022-10-14T20:31:21.820Z,2.33
2022-10-14T20:33:50.999Z,2.33
2022-10-14T20:36:20.519Z,2.17
2022-10-14T20:38:48.978Z,2.25
2022-10-14T20:41:18.457Z,2.38
2022-10-14T20:43:47.235Z,2.67
2022-10-14T20:46:15.667Z,2.28
2022-10-14T20:48:44.203Z,2.30
2022-10-14T20:51:15.958Z,2.28
2022-10-14T20:53:43.804Z,2.30
2022-10-14T20:56:13.583Z,1.92
2022-10-14T20:58:41.738Z,2.40
2022-10-14T21:01:11.018Z,2.75
2022-10-14T21:03:39.390Z,2.05
2022-10-14T21:06:09.435Z,2.15
2022-10-14T21:08:39.304Z,2.17
2022-10-14T21:11:12.040Z,2.03
2022-10-14T21:13:44.922Z,2.40
2022-10-14T21:16:20.244Z,2.00
2022-10-14T21:18:49.696Z,2.05
2022-10-14T21:21:20.264Z,2.03
2022-10-14T21:23:49.691Z,2.65
2022-10-14T21:26:17.515Z,2.25
2022-10-14T21:28:45.557Z,2.42
2022-10-14T21:31:17.562Z,2.30
2022-10-14T21:33:47.467Z,2.42
2022-10-14T21:36:16.986Z,2.10
2022-10-14T21:38:45.157Z,2.30
2022-10-14T21:41:14.428Z,1.85
2022-10-14T21:43:42.578Z,2.10
2022-10-14T21:46:12.516Z,2.20
2022-10-14T21:48:41.508Z,2.35
2022-10-14T21:51:12.098Z,2.00
2022-10-14T21:53:41.398Z,2.05
2022-10-14T21:56:09.817Z,1.98
2022-10-14T21:58:39.401Z,2.28
2022-10-14T22:01:09.392Z,1.88
2022-10-14T22:03:38.664Z,2.33
2022-10-14T22:06:08.769Z,1.90
2022-10-14T22:08:38.726Z,2.05
2022-10-14T22:11:07.745Z,2.70
2022-10-14T22:13:36.322Z,2.10
2022-10-14T22:16:05.766Z,1.85
2022-10-14T22:18:33.569Z,2.08
2022-10-14T22:21:05.915Z,2.55
2022-10-14T22:23:34.547Z,1.98
2022-10-14T22:26:03.288Z,1.98
2022-10-14T22:28:31.799Z,2.15
2022-10-14T22:31:06.657Z,1.98
2022-10-14T22:33:36.164Z,2.10
2022-10-14T22:36:08.305Z,2.22
2022-10-14T22:38:36.337Z,2.33
2022-10-14T22:41:05.353Z,2.08
2022-10-14T22:43:33.635Z,2.00
2022-10-14T22:46:02.197Z,2.05
2022-10-14T22:48:31.988Z,1.88
2022-10-14T22:51:03.901Z,1.77
2022-10-14T22:53:32.220Z,2.08
2022-10-14T22:56:00.398Z,1.60
2022-10-14T22:58:28.626Z,2.08
2022-10-14T23:00:56.532Z,2.47
2022-10-14T23:03:25.540Z,2.17
2022-10-14T23:05:54.710Z,2.97
2022-10-14T23:08:22.545Z,2.75
2022-10-14T23:10:51.639Z,2.72
2022-10-14T23:13:19.512Z,2.55
2022-10-14T23:15:55.780Z,2.20
2022-10-14T23:18:23.839Z,2.50
2022-10-14T23:20:51.864Z,2.53
2022-10-14T23:23:21.155Z,2.03
2022-10-14T23:25:48.966Z,2.15
2022-10-14T23:28:16.984Z,2.40
2022-10-14T23:30:44.798Z,2.08
2022-10-14T23:33:12.616Z,2.33
2022-10-14T23:35:40.456Z,1.95
2022-10-14T23:38:08.295Z,1.33
2022-10-14T23:40:37.459Z,1.65
2022-10-14T23:43:05.348Z,1.95
2022-10-14T23:45:33.185Z,2.20
2022-10-14T23:48:01.009Z,1.80
2022-10-14T23:50:28.856Z,1.52
2022-10-14T23:52:56.680Z,1.95
2022-10-14T23:55:24.600Z,1.20
2022-10-14T23:57:53.963Z,1.67
